sensor_id;sensor_type;location;lat;lon;timestamp;pressure;altitude;pressure_sealevel;temperature;humidity
43934;BME280;59081;42.706;23.306;2022-09-25T00:00:28;95509.44;;;9.90;63.15
43934;BME280;59081;42.706;23.306;2022-09-25T00:02:54;95540.84;;;10.12;63.17
43934;BME280;59081;42.706;23.306;2022-09-25T00:05:19;95505.50;;;9.91;63.44
43934;BME280;59081;42.706;23.306;2022-09-25T00:07:45;95492.81;;;9.77;63.87
43934;BME280;59081;42.706;23.306;2022-09-25T00:10:10;95517.91;;;9.99;63.89
43934;BME280;59081;42.706;23.306;2022-09-25T00:12:36;95546.91;;;10.24;64.00
43934;BME280;59081;42.706;23.306;2022-09-25T00:15:02;95446.63;;;9.49;63.50
43934;BME280;59081;42.706;23.306;2022-09-25T00:17:28;95556.50;;;10.16;63.92
43934;BME280;59081;42.706;23.306;2022-09-25T00:19:53;95584.47;;;10.34;64.33
43934;BME280;59081;42.706;23.306;2022-09-25T00:22:21;95579.81;;;10.31;64.60
43934;BME280;59081;42.706;23.306;2022-09-25T00:24:46;95496.97;;;9.66;64.61
43934;BME280;59081;42.706;23.306;2022-09-25T00:27:13;95451.56;;;9.38;64.94
43934;BME280;59081;42.706;23.306;2022-09-25T00:29:38;95545.09;;;9.97;65.20
43934;BME280;59081;42.706;23.306;2022-09-25T00:32:06;95607.47;;;10.43;65.15
43934;BME280;59081;42.706;23.306;2022-09-25T00:34:32;95417.38;;;8.99;65.44
43934;BME280;59081;42.706;23.306;2022-09-25T00:36:57;95583.84;;;9.87;66.52
43934;BME280;59081;42.706;23.306;2022-09-25T00:39:23;95473.31;;;9.09;66.76
43934;BME280;59081;42.706;23.306;2022-09-25T00:41:50;95526.09;;;9.43;66.62
43934;BME280;59081;42.706;23.306;2022-09-25T00:47:59;95453.66;;;9.11;66.04
43934;BME280;59081;42.706;23.306;2022-09-25T00:50:30;95568.94;;;9.84;66.04
43934;BME280;59081;42.706;23.306;2022-09-25T00:53:05;95446.66;;;9.06;65.56
43934;BME280;59081;42.706;23.306;2022-09-25T00:55:34;95508.09;;;9.39;65.46
43934;BME280;59081;42.706;23.306;2022-09-25T00:58:02;95592.50;;;9.85;65.33
43934;BME280;59081;42.706;23.306;2022-09-25T01:00:30;95472.31;;;8.99;65.14
43934;BME280;59081;42.706;23.306;2022-09-25T01:02:56;95502.09;;;9.01;65.71
43934;BME280;59081;42.706;23.306;2022-09-25T01:05:31;95597.41;;;9.74;66.24
43934;BME280;59081;42.706;23.306;2022-09-25T01:07:59;95442.69;;;8.87;65.43
43934;BME280;59081;42.706;23.306;2022-09-25T01:10:25;95542.88;;;9.49;65.78
43934;BME280;59081;42.706;23.306;2022-09-25T01:12:52;95481.75;;;9.18;65.48
43934;BME280;59081;42.706;23.306;2022-09-25T01:15:20;95505.09;;;9.10;65.57
43934;BME280;59081;42.706;23.306;2022-09-25T01:18:09;95491.56;;;8.99;66.06
43934;BME280;59081;42.706;23.306;2022-09-25T01:21:06;95581.66;;;9.55;66.18
43934;BME280;59081;42.706;23.306;2022-09-25T01:26:47;95488.31;;;8.81;66.36
43934;BME280;59081;42.706;23.306;2022-09-25T01:32:14;95463.13;;;8.63;66.91
43934;BME280;59081;42.706;23.306;2022-09-25T01:35:01;95582.28;;;9.42;67.13
43934;BME280;59081;42.706;23.306;2022-09-25T01:42:56;95587.13;;;9.35;67.81
43934;BME280;59081;42.706;23.306;2022-09-25T01:45:50;95492.19;;;8.84;67.37
43934;BME280;59081;42.706;23.306;2022-09-25T01:48:19;95428.09;;;8.47;66.96
43934;BME280;59081;42.706;23.306;2022-09-25T01:50:50;95500.25;;;8.71;66.92
43934;BME280;59081;42.706;23.306;2022-09-25T01:53:23;95504.91;;;8.74;67.02
43934;BME280;59081;42.706;23.306;2022-09-25T01:55:57;95534.59;;;8.83;67.34
43934;BME280;59081;42.706;23.306;2022-09-25T01:58:28;95599.31;;;9.11;67.98
43934;BME280;59081;42.706;23.306;2022-09-25T02:01:00;95500.28;;;8.44;67.84
43934;BME280;59081;42.706;23.306;2022-09-25T02:04:07;95603.19;;;9.13;68.06
43934;BME280;59081;42.706;23.306;2022-09-25T02:06:31;95491.41;;;8.33;68.69
43934;BME280;59081;42.706;23.306;2022-09-25T02:09:04;95509.84;;;8.59;68.52
43934;BME280;59081;42.706;23.306;2022-09-25T02:11:36;95512.59;;;8.59;69.35
43934;BME280;59081;42.706;23.306;2022-09-25T02:14:11;95457.78;;;8.25;68.90
43934;BME280;59081;42.706;23.306;2022-09-25T02:16:40;95487.34;;;8.45;68.97
43934;BME280;59081;42.706;23.306;2022-09-25T02:19:10;95494.53;;;8.62;68.80
43934;BME280;59081;42.706;23.306;2022-09-25T02:22:04;95526.38;;;8.83;68.46
43934;BME280;59081;42.706;23.306;2022-09-25T02:27:01;95479.47;;;8.47;68.99
43934;BME280;59081;42.706;23.306;2022-09-25T02:29:28;95528.44;;;8.75;69.37
43934;BME280;59081;42.706;23.306;2022-09-25T02:31:58;95590.66;;;9.12;69.39
43934;BME280;59081;42.706;23.306;2022-09-25T02:34:26;95457.44;;;8.23;69.13
43934;BME280;59081;42.706;23.306;2022-09-25T02:36:52;95576.28;;;9.01;69.64
43934;BME280;59081;42.706;23.306;2022-09-25T02:39:20;95476.78;;;8.43;69.08
43934;BME280;59081;42.706;23.306;2022-09-25T02:53:15;95494.88;;;8.10;70.93
43934;BME280;59081;42.706;23.306;2022-09-25T02:55:53;95595.53;;;8.74;71.21
43934;BME280;59081;42.706;23.306;2022-09-25T02:58:26;95602.28;;;8.69;71.32
43934;BME280;59081;42.706;23.306;2022-09-25T03:00:53;95585.03;;;8.69;71.33
43934;BME280;59081;42.706;23.306;2022-09-25T03:03:22;95520.50;;;8.27;71.27
43934;BME280;59081;42.706;23.306;2022-09-25T03:05:50;95564.03;;;8.55;71.39
43934;BME280;59081;42.706;23.306;2022-09-25T03:08:17;95598.25;;;8.78;71.22
43934;BME280;59081;42.706;23.306;2022-09-25T03:11:08;95494.72;;;8.21;70.88
43934;BME280;59081;42.706;23.306;2022-09-25T03:13:34;95483.72;;;8.21;70.52
43934;BME280;59081;42.706;23.306;2022-09-25T03:16:21;95474.06;;;8.13;70.79
43934;BME280;59081;42.706;23.306;2022-09-25T03:18:51;95451.09;;;7.99;70.16
43934;BME280;59081;42.706;23.306;2022-09-25T03:21:16;95500.88;;;8.28;70.14
43934;BME280;59081;42.706;23.306;2022-09-25T03:23:42;95475.34;;;8.04;70.61
43934;BME280;59081;42.706;23.306;2022-09-25T03:26:07;95518.78;;;8.40;70.48
43934;BME280;59081;42.706;23.306;2022-09-25T03:28:33;95580.81;;;8.88;70.14
43934;BME280;59081;42.706;23.306;2022-09-25T03:31:02;95494.97;;;8.30;70.19
43934;BME280;59081;42.706;23.306;2022-09-25T03:33:32;95467.31;;;8.17;69.87
43934;BME280;59081;42.706;23.306;2022-09-25T03:38:28;95527.63;;;8.21;69.97
43934;BME280;59081;42.706;23.306;2022-09-25T03:40:53;95517.47;;;8.18;70.18
43934;BME280;59081;42.706;23.306;2022-09-25T03:43:19;95474.34;;;7.91;70.35
43934;BME280;59081;42.706;23.306;2022-09-25T03:45:44;95487.13;;;8.01;69.97
43934;BME280;59081;42.706;23.306;2022-09-25T03:48:10;95459.91;;;7.87;70.02
43934;BME280;59081;42.706;23.306;2022-09-25T03:50:35;95483.56;;;8.04;69.92
43934;BME280;59081;42.706;23.306;2022-09-25T03:53:03;95548.09;;;8.47;69.70
43934;BME280;59081;42.706;23.306;2022-09-25T03:55:29;95520.47;;;8.30;69.33
43934;BME280;59081;42.706;23.306;2022-09-25T03:57:54;95596.66;;;8.80;69.74
43934;BME280;59081;42.706;23.306;2022-09-25T04:00:19;95448.94;;;7.87;69.49
43934;BME280;59081;42.706;23.306;2022-09-25T04:02:45;95584.88;;;8.80;69.36
43934;BME280;59081;42.706;23.306;2022-09-25T04:05:10;95603.16;;;8.90;69.19
43934;BME280;59081;42.706;23.306;2022-09-25T04:07:36;95522.38;;;8.33;68.86
43934;BME280;59081;42.706;23.306;2022-09-25T04:10:01;95610.63;;;8.89;69.06
43934;BME280;59081;42.706;23.306;2022-09-25T04:12:27;95545.03;;;8.41;69.12
43934;BME280;59081;42.706;23.306;2022-09-25T04:14:52;95569.94;;;8.54;69.08
43934;BME280;59081;42.706;23.306;2022-09-25T04:17:19;95586.69;;;8.63;69.29
43934;BME280;59081;42.706;23.306;2022-09-25T04:19:44;95505.06;;;8.10;68.96
43934;BME280;59081;42.706;23.306;2022-09-25T04:22:11;95477.91;;;7.88;68.84
43934;BME280;59081;42.706;23.306;2022-09-25T04:24:36;95586.22;;;8.41;69.64
43934;BME280;59081;42.706;23.306;2022-09-25T04:27:19;95535.00;;;7.97;70.15
43934;BME280;59081;42.706;23.306;2022-09-25T04:29:46;95580.84;;;8.30;69.97
43934;BME280;59081;42.706;23.306;2022-09-25T04:32:13;95559.13;;;8.13;70.17
43934;BME280;59081;42.706;23.306;2022-09-25T04:34:57;95504.72;;;7.77;70.03
43934;BME280;59081;42.706;23.306;2022-09-25T04:37:23;95592.88;;;8.40;70.16
43934;BME280;59081;42.706;23.306;2022-09-25T04:39:55;95584.69;;;8.36;69.99
43934;BME280;59081;42.706;23.306;2022-09-25T04:42:21;95479.69;;;7.72;69.71
43934;BME280;59081;42.706;23.306;2022-09-25T04:44:50;95494.84;;;7.80;69.69
43934;BME280;59081;42.706;23.306;2022-09-25T04:47:16;95467.97;;;7.71;69.87
43934;BME280;59081;42.706;23.306;2022-09-25T04:49:41;95471.84;;;7.74;69.66
43934;BME280;59081;42.706;23.306;2022-09-25T04:52:07;95503.63;;;7.98;69.77
43934;BME280;59081;42.706;23.306;2022-09-25T04:54:32;95476.34;;;7.87;69.41
43934;BME280;59081;42.706;23.306;2022-09-25T04:56:57;95567.72;;;8.45;69.53
43934;BME280;59081;42.706;23.306;2022-09-25T04:59:23;95587.94;;;8.58;69.28
43934;BME280;59081;42.706;23.306;2022-09-25T05:01:48;95504.34;;;8.06;69.46
43934;BME280;59081;42.706;23.306;2022-09-25T05:04:14;95539.25;;;8.32;69.65
43934;BME280;59081;42.706;23.306;2022-09-25T05:06:40;95489.44;;;8.07;69.26
43934;BME280;59081;42.706;23.306;2022-09-25T05:09:06;95535.25;;;8.40;69.21
43934;BME280;59081;42.706;23.306;2022-09-25T05:11:31;95546.06;;;8.51;69.13
43934;BME280;59081;42.706;23.306;2022-09-25T05:13:57;95551.25;;;8.45;68.81
43934;BME280;59081;42.706;23.306;2022-09-25T05:16:22;95496.34;;;8.15;68.97
43934;BME280;59081;42.706;23.306;2022-09-25T05:18:47;95609.75;;;8.96;68.89
43934;BME280;59081;42.706;23.306;2022-09-25T05:21:13;95512.47;;;8.43;68.38
43934;BME280;59081;42.706;23.306;2022-09-25T05:23:38;95461.53;;;8.12;68.22
43934;BME280;59081;42.706;23.306;2022-09-25T05:26:04;95549.03;;;8.63;68.29
43934;BME280;59081;42.706;23.306;2022-09-25T05:28:30;95551.84;;;8.83;67.91
43934;BME280;59081;42.706;23.306;2022-09-25T05:31:00;95515.06;;;8.77;67.68
43934;BME280;59081;42.706;23.306;2022-09-25T05:33:30;95542.13;;;9.02;67.18
43934;BME280;59081;42.706;23.306;2022-09-25T05:35:59;95425.53;;;8.33;67.09
43934;BME280;59081;42.706;23.306;2022-09-25T05:38:25;95553.16;;;9.45;66.20
43934;BME280;59081;42.706;23.306;2022-09-25T05:40:51;95609.09;;;10.01;65.34
43934;BME280;59081;42.706;23.306;2022-09-25T05:43:17;95517.44;;;9.65;64.05
43934;BME280;59081;42.706;23.306;2022-09-25T05:45:43;95506.69;;;9.70;63.66
43934;BME280;59081;42.706;23.306;2022-09-25T05:48:08;95495.00;;;9.66;63.19
43934;BME280;59081;42.706;23.306;2022-09-25T05:50:34;95525.34;;;9.83;62.16
43934;BME280;59081;42.706;23.306;2022-09-25T05:53:02;95559.41;;;10.08;62.54
43934;BME280;59081;42.706;23.306;2022-09-25T05:55:28;95557.34;;;10.12;62.23
43934;BME280;59081;42.706;23.306;2022-09-25T05:57:59;95520.75;;;9.96;61.75
43934;BME280;59081;42.706;23.306;2022-09-25T06:00:25;95536.25;;;10.06;61.85
43934;BME280;59081;42.706;23.306;2022-09-25T06:02:51;95554.13;;;9.98;61.77
43934;BME280;59081;42.706;23.306;2022-09-25T06:05:17;95595.03;;;10.16;62.71
43934;BME280;59081;42.706;23.306;2022-09-25T06:07:42;95523.44;;;9.80;62.75
43934;BME280;59081;42.706;23.306;2022-09-25T06:10:08;95476.03;;;9.52;63.15
43934;BME280;59081;42.706;23.306;2022-09-25T06:12:34;95574.06;;;10.41;61.96
43934;BME280;59081;42.706;23.306;2022-09-25T06:14:59;95533.50;;;10.26;61.52
43934;BME280;59081;42.706;23.306;2022-09-25T06:17:25;95471.22;;;9.96;61.06
43934;BME280;59081;42.706;23.306;2022-09-25T06:19:50;95514.00;;;10.17;60.62
43934;BME280;59081;42.706;23.306;2022-09-25T06:22:16;95546.47;;;10.61;60.62
43934;BME280;59081;42.706;23.306;2022-09-25T06:24:42;95555.63;;;10.74;59.20
43934;BME280;59081;42.706;23.306;2022-09-25T06:27:08;95523.94;;;10.66;59.35
43934;BME280;59081;42.706;23.306;2022-09-25T06:29:34;95615.63;;;11.35;59.14
43934;BME280;59081;42.706;23.306;2022-09-25T06:31:59;95605.59;;;11.09;59.28
43934;BME280;59081;42.706;23.306;2022-09-25T06:34:25;95533.69;;;10.71;59.29
43934;BME280;59081;42.706;23.306;2022-09-25T06:36:52;95558.31;;;10.78;59.26
43934;BME280;59081;42.706;23.306;2022-09-25T06:39:17;95535.03;;;10.63;59.45
43934;BME280;59081;42.706;23.306;2022-09-25T06:41:42;95517.03;;;10.58;59.28
43934;BME280;59081;42.706;23.306;2022-09-25T06:44:08;95522.75;;;10.84;59.39
43934;BME280;59081;42.706;23.306;2022-09-25T06:46:35;95523.78;;;11.06;57.86
43934;BME280;59081;42.706;23.306;2022-09-25T06:49:00;95544.09;;;11.28;57.12
43934;BME280;59081;42.706;23.306;2022-09-25T06:51:26;95521.03;;;11.51;56.60
43934;BME280;59081;42.706;23.306;2022-09-25T06:53:55;95582.13;;;12.11;55.17
43934;BME280;59081;42.706;23.306;2022-09-25T06:56:21;95513.06;;;11.98;55.21
43934;BME280;59081;42.706;23.306;2022-09-25T06:58:46;95488.25;;;12.11;53.71
43934;BME280;59081;42.706;23.306;2022-09-25T07:01:12;95542.53;;;12.68;53.00
43934;BME280;59081;42.706;23.306;2022-09-25T07:03:38;95493.16;;;12.45;51.58
43934;BME280;59081;42.706;23.306;2022-09-25T07:06:24;95523.19;;;12.94;50.92
43934;BME280;59081;42.706;23.306;2022-09-25T07:08:51;95603.41;;;13.19;50.45
43934;BME280;59081;42.706;23.306;2022-09-25T07:11:21;95537.47;;;12.54;50.74
43934;BME280;59081;42.706;23.306;2022-09-25T07:13:48;95515.00;;;12.27;50.95
43934;BME280;59081;42.706;23.306;2022-09-25T07:16:20;95543.75;;;12.42;51.37
43934;BME280;59081;42.706;23.306;2022-09-25T07:18:46;95517.66;;;12.68;50.43
43934;BME280;59081;42.706;23.306;2022-09-25T07:21:14;95542.00;;;13.24;49.58
43934;BME280;59081;42.706;23.306;2022-09-25T07:23:40;95563.91;;;13.66;49.15
43934;BME280;59081;42.706;23.306;2022-09-25T07:28:32;95601.63;;;14.41;47.48
43934;BME280;59081;42.706;23.306;2022-09-25T07:30:57;95621.34;;;14.65;47.28
43934;BME280;59081;42.706;23.306;2022-09-25T07:33:23;95557.88;;;14.67;46.05
43934;BME280;59081;42.706;23.306;2022-09-25T07:35:49;95511.84;;;14.70;44.78
43934;BME280;59081;42.706;23.306;2022-09-25T07:38:15;95487.94;;;14.72;44.31
43934;BME280;59081;42.706;23.306;2022-09-25T07:40:41;95549.97;;;15.37;43.80
43934;BME280;59081;42.706;23.306;2022-09-25T07:43:07;95455.53;;;15.09;43.14
43934;BME280;59081;42.706;23.306;2022-09-25T07:45:32;95516.56;;;15.77;42.79
43934;BME280;59081;42.706;23.306;2022-09-25T07:47:59;95596.50;;;16.36;42.64
43934;BME280;59081;42.706;23.306;2022-09-25T07:50:25;95498.19;;;15.79;42.80
43934;BME280;59081;42.706;23.306;2022-09-25T07:52:52;95578.25;;;16.54;41.87
43934;BME280;59081;42.706;23.306;2022-09-25T07:55:18;95506.38;;;15.64;42.25
43934;BME280;59081;42.706;23.306;2022-09-25T07:57:44;95561.47;;;15.75;43.29
43934;BME280;59081;42.706;23.306;2022-09-25T08:00:10;95563.91;;;15.64;43.59
43934;BME280;59081;42.706;23.306;2022-09-25T08:02:35;95497.97;;;15.28;43.26
43934;BME280;59081;42.706;23.306;2022-09-25T08:05:01;95431.03;;;14.98;43.38
43934;BME280;59081;42.706;23.306;2022-09-25T08:07:27;95519.66;;;15.88;42.47
43934;BME280;59081;42.706;23.306;2022-09-25T08:09:53;95482.94;;;15.75;42.54
43934;BME280;59081;42.706;23.306;2022-09-25T08:12:19;95526.50;;;16.47;41.97
43934;BME280;59081;42.706;23.306;2022-09-25T08:14:44;95469.50;;;16.52;40.49
43934;BME280;59081;42.706;23.306;2022-09-25T08:17:10;95496.59;;;16.84;41.15
43934;BME280;59081;42.706;23.306;2022-09-25T08:19:36;95487.44;;;16.93;40.06
43934;BME280;59081;42.706;23.306;2022-09-25T08:22:01;95556.63;;;17.09;40.11
43934;BME280;59081;42.706;23.306;2022-09-25T08:24:27;95472.28;;;16.94;39.55
43934;BME280;59081;42.706;23.306;2022-09-25T08:26:53;95452.69;;;17.36;38.63
43934;BME280;59081;42.706;23.306;2022-09-25T08:29:18;95438.16;;;17.56;38.67
43934;BME280;59081;42.706;23.306;2022-09-25T08:31:43;95435.00;;;17.63;38.73
43934;BME280;59081;42.706;23.306;2022-09-25T08:34:09;95458.41;;;17.65;39.20
43934;BME280;59081;42.706;23.306;2022-09-25T08:36:35;95441.50;;;17.84;38.62
43934;BME280;59081;42.706;23.306;2022-09-25T08:39:00;95426.44;;;18.20;37.55
43934;BME280;59081;42.706;23.306;2022-09-25T08:41:35;95470.56;;;18.36;36.71
43934;BME280;59081;42.706;23.306;2022-09-25T08:44:09;95535.59;;;18.71;36.82
43934;BME280;59081;42.706;23.306;2022-09-25T08:46:42;95510.13;;;18.64;36.61
43934;BME280;59081;42.706;23.306;2022-09-25T08:49:30;95508.28;;;18.75;35.21
43934;BME280;59081;42.706;23.306;2022-09-25T08:52:02;95485.94;;;18.75;35.49
43934;BME280;59081;42.706;23.306;2022-09-25T08:54:30;95546.44;;;19.48;34.90
43934;BME280;59081;42.706;23.306;2022-09-25T08:56:59;95466.09;;;19.23;34.91
43934;BME280;59081;42.706;23.306;2022-09-25T08:59:37;95545.16;;;19.64;35.01
43934;BME280;59081;42.706;23.306;2022-09-25T09:02:19;95518.13;;;19.41;34.54
43934;BME280;59081;42.706;23.306;2022-09-25T09:04:51;95448.56;;;19.23;34.53
43934;BME280;59081;42.706;23.306;2022-09-25T09:07:24;95507.91;;;19.93;33.79
43934;BME280;59081;42.706;23.306;2022-09-25T09:12:36;95500.91;;;20.29;33.15
43934;BME280;59081;42.706;23.306;2022-09-25T09:15:17;95383.34;;;19.66;33.40
43934;BME280;59081;42.706;23.306;2022-09-25T09:17:46;95376.13;;;20.06;32.86
43934;BME280;59081;42.706;23.306;2022-09-25T09:20:29;95441.47;;;20.60;32.35
43934;BME280;59081;42.706;23.306;2022-09-25T09:22:58;95454.03;;;20.44;31.94
43934;BME280;59081;42.706;23.306;2022-09-25T09:25:55;95437.66;;;20.06;32.96
43934;BME280;59081;42.706;23.306;2022-09-25T09:31:41;95470.47;;;21.26;31.99
43934;BME280;59081;42.706;23.306;2022-09-25T09:48:03;95391.63;;;21.55;30.29
43934;BME280;59081;42.706;23.306;2022-09-25T09:53:08;95394.03;;;21.96;28.58
43934;BME280;59081;42.706;23.306;2022-09-25T09:55:44;95482.03;;;22.04;29.03
43934;BME280;59081;42.706;23.306;2022-09-25T09:58:25;95428.44;;;21.91;29.12
43934;BME280;59081;42.706;23.306;2022-09-25T10:00:53;95467.31;;;22.26;28.91
43934;BME280;59081;42.706;23.306;2022-09-25T10:03:24;95473.66;;;22.15;29.03
43934;BME280;59081;42.706;23.306;2022-09-25T10:05:55;95368.47;;;21.71;28.67
43934;BME280;59081;42.706;23.306;2022-09-25T10:08:22;95362.41;;;21.89;28.28
43934;BME280;59081;42.706;23.306;2022-09-25T10:10:52;95367.25;;;21.95;28.42
43934;BME280;59081;42.706;23.306;2022-09-25T10:13:30;95373.16;;;22.19;28.72
43934;BME280;59081;42.706;23.306;2022-09-25T10:16:05;95349.16;;;21.96;28.27
43934;BME280;59081;42.706;23.306;2022-09-25T10:21:10;95437.50;;;22.95;28.51
43934;BME280;59081;42.706;23.306;2022-09-25T10:23:47;95315.03;;;22.25;28.02
43934;BME280;59081;42.706;23.306;2022-09-25T10:26:32;95435.44;;;22.45;28.20
43934;BME280;59081;42.706;23.306;2022-09-25T10:29:03;95351.50;;;22.25;27.81
43934;BME280;59081;42.706;23.306;2022-09-25T10:31:31;95437.69;;;23.36;27.18
43934;BME280;59081;42.706;23.306;2022-09-25T10:34:19;95424.94;;;23.13;27.44
43934;BME280;59081;42.706;23.306;2022-09-25T10:36:51;95330.00;;;21.83;28.17
43934;BME280;59081;42.706;23.306;2022-09-25T10:41:52;95415.03;;;22.89;27.32
43934;BME280;59081;42.706;23.306;2022-09-25T10:44:37;95352.91;;;21.59;28.91
43934;BME280;59081;42.706;23.306;2022-09-25T10:50:20;95350.88;;;23.05;26.55
43934;BME280;59081;42.706;23.306;2022-09-25T10:52:51;95306.53;;;22.81;26.62
43934;BME280;59081;42.706;23.306;2022-09-25T10:57:46;95402.41;;;23.99;25.81
43934;BME280;59081;42.706;23.306;2022-09-25T11:00:21;95397.00;;;24.42;25.27
43934;BME280;59081;42.706;23.306;2022-09-25T11:02:53;95397.69;;;24.83;25.54
43934;BME280;59081;42.706;23.306;2022-09-25T11:05:26;95343.81;;;24.92;24.31
43934;BME280;59081;42.706;23.306;2022-09-25T11:07:56;95384.47;;;24.73;25.15
43934;BME280;59081;42.706;23.306;2022-09-25T11:10:25;95297.41;;;24.45;24.65
43934;BME280;59081;42.706;23.306;2022-09-25T11:12:51;95280.94;;;24.79;24.17
43934;BME280;59081;42.706;23.306;2022-09-25T11:15:19;95371.69;;;25.88;23.50
43934;BME280;59081;42.706;23.306;2022-09-25T11:17:49;95350.69;;;25.21;23.90
43934;BME280;59081;42.706;23.306;2022-09-25T11:28:11;95375.91;;;25.57;22.71
43934;BME280;59081;42.706;23.306;2022-09-25T11:30:50;95250.72;;;25.04;22.56
43934;BME280;59081;42.706;23.306;2022-09-25T11:36:30;95253.63;;;25.92;22.61
43934;BME280;59081;42.706;23.306;2022-09-25T11:39:02;95259.13;;;25.09;22.99
43934;BME280;59081;42.706;23.306;2022-09-25T11:42:26;95292.59;;;25.37;22.98
43934;BME280;59081;42.706;23.306;2022-09-25T11:48:25;95341.03;;;25.79;22.41
43934;BME280;59081;42.706;23.306;2022-09-25T11:51:10;95246.00;;;25.12;22.71
43934;BME280;59081;42.706;23.306;2022-09-25T11:57:25;95311.13;;;25.70;22.46
43934;BME280;59081;42.706;23.306;2022-09-25T12:05:30;95309.16;;;26.16;22.10
43934;BME280;59081;42.706;23.306;2022-09-25T12:10:55;95285.72;;;25.51;22.79
43934;BME280;59081;42.706;23.306;2022-09-25T12:13:30;95309.13;;;26.02;22.22
43934;BME280;59081;42.706;23.306;2022-09-25T12:16:15;95301.41;;;26.80;21.10
43934;BME280;59081;42.706;23.306;2022-09-25T12:21:50;95194.31;;;26.24;21.19
43934;BME280;59081;42.706;23.306;2022-09-25T12:38:40;95279.34;;;26.65;20.57
43934;BME280;59081;42.706;23.306;2022-09-25T12:44:30;95268.38;;;26.88;20.79
43934;BME280;59081;42.706;23.306;2022-09-25T12:47:06;95188.59;;;26.29;21.31
43934;BME280;59081;42.706;23.306;2022-09-25T12:49:43;95160.66;;;26.52;20.67
43934;BME280;59081;42.706;23.306;2022-09-25T12:52:14;95157.84;;;26.39;20.69
43934;BME280;59081;42.706;23.306;2022-09-25T12:54:51;95174.47;;;26.56;21.09
43934;BME280;59081;42.706;23.306;2022-09-25T12:57:28;95262.34;;;26.39;21.32
43934;BME280;59081;42.706;23.306;2022-09-25T13:00:20;95148.44;;;25.91;21.99
43934;BME280;59081;42.706;23.306;2022-09-25T13:02:59;95165.22;;;26.95;21.79
43934;BME280;59081;42.706;23.306;2022-09-25T13:05:33;95255.41;;;27.46;20.92
43934;BME280;59081;42.706;23.306;2022-09-25T13:08:07;95153.19;;;25.32;22.40
43934;BME280;59081;42.706;23.306;2022-09-25T13:13:21;95085.91;;;25.42;22.20
43934;BME280;59081;42.706;23.306;2022-09-25T13:15:52;95170.78;;;26.61;21.97
43934;BME280;59081;42.706;23.306;2022-09-25T13:18:22;95160.75;;;26.86;21.92
43934;BME280;59081;42.706;23.306;2022-09-25T13:20:50;95162.38;;;27.08;21.57
43934;BME280;59081;42.706;23.306;2022-09-25T13:23:34;95158.63;;;26.66;21.95
43934;BME280;59081;42.706;23.306;2022-09-25T13:26:13;95148.69;;;26.20;22.29
43934;BME280;59081;42.706;23.306;2022-09-25T13:28:49;95122.03;;;25.76;22.83
43934;BME280;59081;42.706;23.306;2022-09-25T13:31:28;95180.44;;;27.05;22.51
43934;BME280;59081;42.706;23.306;2022-09-25T13:38:55;95172.03;;;26.20;23.06
43934;BME280;59081;42.706;23.306;2022-09-25T13:42:00;95195.50;;;26.28;23.22
43934;BME280;59081;42.706;23.306;2022-09-25T13:49:52;95060.63;;;24.67;23.87
43934;BME280;59081;42.706;23.306;2022-09-25T13:52:50;95131.56;;;25.41;23.56
43934;BME280;59081;42.706;23.306;2022-09-25T13:55:40;95106.66;;;25.58;23.48
43934;BME280;59081;42.706;23.306;2022-09-25T13:58:19;95184.50;;;25.48;24.19
43934;BME280;59081;42.706;23.306;2022-09-25T14:03:35;95169.97;;;26.08;23.10
43934;BME280;59081;42.706;23.306;2022-09-25T14:06:02;95089.56;;;25.05;23.83
43934;BME280;59081;42.706;23.306;2022-09-25T14:08:31;95174.22;;;24.75;24.98
43934;BME280;59081;42.706;23.306;2022-09-25T14:11:02;95089.56;;;24.24;25.17
43934;BME280;59081;42.706;23.306;2022-09-25T14:13:30;95083.91;;;24.49;24.75
43934;BME280;59081;42.706;23.306;2022-09-25T14:15:59;95106.09;;;24.34;25.18
43934;BME280;59081;42.706;23.306;2022-09-25T14:18:44;95136.78;;;24.37;25.45
43934;BME280;59081;42.706;23.306;2022-09-25T14:21:12;95106.59;;;23.89;25.87
43934;BME280;59081;42.706;23.306;2022-09-25T14:23:50;95106.03;;;23.90;26.10
43934;BME280;59081;42.706;23.306;2022-09-25T14:26:25;95116.81;;;24.11;25.97
43934;BME280;59081;42.706;23.306;2022-09-25T14:28:53;95080.50;;;23.88;25.82
43934;BME280;59081;42.706;23.306;2022-09-25T14:47:07;95114.97;;;22.94;27.01
43934;BME280;59081;42.706;23.306;2022-09-25T14:49:38;95040.97;;;22.44;26.92
43934;BME280;59081;42.706;23.306;2022-09-25T14:52:13;95160.72;;;22.88;27.51
43934;BME280;59081;42.706;23.306;2022-09-25T14:54:43;95154.13;;;22.80;27.99
43934;BME280;59081;42.706;23.306;2022-09-25T14:57:14;95095.09;;;22.39;27.23
43934;BME280;59081;42.706;23.306;2022-09-25T14:59:50;95105.81;;;22.35;28.13
43934;BME280;59081;42.706;23.306;2022-09-25T15:04:42;95115.50;;;22.34;28.17
43934;BME280;59081;42.706;23.306;2022-09-25T15:07:14;95087.31;;;22.04;28.32
43934;BME280;59081;42.706;23.306;2022-09-25T15:09:44;95088.06;;;22.05;28.33
43934;BME280;59081;42.706;23.306;2022-09-25T15:12:27;95178.69;;;22.57;28.41
43934;BME280;59081;42.706;23.306;2022-09-25T15:15:00;95182.63;;;22.32;28.37
43934;BME280;59081;42.706;23.306;2022-09-25T15:17:28;95066.28;;;21.42;28.64
43934;BME280;59081;42.706;23.306;2022-09-25T15:19:55;95109.06;;;21.59;28.69
43934;BME280;59081;42.706;23.306;2022-09-25T15:22:27;95064.22;;;21.37;28.64
43934;BME280;59081;42.706;23.306;2022-09-25T15:24:58;95109.56;;;21.52;28.00
43934;BME280;59081;42.706;23.306;2022-09-25T15:27:24;95100.41;;;21.46;28.33
43934;BME280;59081;42.706;23.306;2022-09-25T15:29:52;95079.78;;;21.38;28.31
43934;BME280;59081;42.706;23.306;2022-09-25T15:32:26;95162.81;;;21.63;28.54
43934;BME280;59081;42.706;23.306;2022-09-25T15:35:14;95113.91;;;21.36;28.52
43934;BME280;59081;42.706;23.306;2022-09-25T15:37:41;95139.13;;;21.36;28.86
43934;BME280;59081;42.706;23.306;2022-09-25T15:40:20;95113.88;;;21.08;29.07